Time;durP1;ratioP1;P1;durP2;ratioP2;P2;SDS_P1;SDS_P2;PMS_P1;PMS_P2;Temp;Humidity;BMP_temperature;BMP_pressure;BME280_temperature;BME280_humidity;BME280_pressure;Samples;Min_cycle;Max_cycle;Signal;HPM_P1;HPM_P2
2023/05/17 00:01:55;;;;;;;2.17;0.60;;;;;;;21.31;57.87;100181.19;5075301;28;20055;-57
2023/05/17 00:04:22;;;;;;;2.03;0.68;;;;;;;21.30;57.74;100184.03;5075120;28;20051;-57
2023/05/17 00:06:50;;;;;;;2.95;0.80;;;;;;;21.30;57.86;100184.88;5075318;28;20049;-57
2023/05/17 00:09:18;;;;;;;1.95;0.73;;;;;;;21.30;57.87;100184.03;5075074;28;20048;-57
2023/05/17 00:11:45;;;;;;;1.83;0.98;;;;;;;21.31;57.91;100193.78;5075083;28;20048;-50
2023/05/17 00:14:12;;;;;;;2.90;0.80;;;;;;;21.30;57.90;100187.56;5074928;28;20067;-48
2023/05/17 00:16:40;;;;;;;2.05;0.70;;;;;;;21.30;57.91;100195.63;5075377;28;20056;-57
2023/05/17 00:19:08;;;;;;;2.58;0.85;;;;;;;21.30;58.08;100200.19;5074981;28;20056;-57
2023/05/17 00:21:36;;;;;;;2.25;1.05;;;;;;;21.30;57.91;100198.31;5074921;28;20511;-49
2023/05/17 00:24:03;;;;;;;1.73;0.63;;;;;;;21.29;57.92;100193.97;5074901;28;20055;-48
2023/05/17 00:26:32;;;;;;;2.47;0.30;;;;;;;21.30;58.01;100192.09;5074833;28;20059;-49
2023/05/17 00:29:00;;;;;;;1.52;0.88;;;;;;;21.29;57.90;100188.56;5074837;28;20047;-48
2023/05/17 00:31:27;;;;;;;1.40;0.60;;;;;;;21.29;57.86;100190.44;5074783;28;20041;-57
2023/05/17 00:33:55;;;;;;;3.58;0.52;;;;;;;21.28;57.83;100186.06;5073816;28;20583;-57
2023/05/17 00:36:22;;;;;;;1.52;0.55;;;;;;;21.28;57.75;100177.97;5075093;28;20404;-57
2023/05/17 00:38:49;;;;;;;1.98;0.60;;;;;;;21.27;57.74;100190.59;5074728;28;20048;-57
2023/05/17 00:41:17;;;;;;;2.95;0.85;;;;;;;21.28;57.74;100177.97;5074563;28;20049;-57
2023/05/17 00:43:45;;;;;;;1.17;0.45;;;;;;;21.28;57.83;100181.50;5074841;28;20053;-57
2023/05/17 00:46:12;;;;;;;2.65;1.02;;;;;;;21.28;57.78;100180.66;5074498;28;20078;-57
2023/05/17 00:48:41;;;;;;;2.10;0.70;;;;;;;21.28;57.88;100180.66;5073457;28;20481;-48
2023/05/17 00:51:10;;;;;;;1.50;0.45;;;;;;;21.27;57.82;100173.56;5074560;28;20037;-57
2023/05/17 00:53:38;;;;;;;2.30;0.60;;;;;;;21.27;57.73;100173.56;5074647;28;20044;-57
2023/05/17 00:56:06;;;;;;;0.82;0.30;;;;;;;21.27;57.75;100170.88;5074412;28;20045;-57
2023/05/17 00:58:34;;;;;;;1.85;0.60;;;;;;;21.27;57.85;100170.88;5073360;28;20056;-57
2023/05/17 01:01:02;;;;;;;1.40;0.50;;;;;;;21.27;57.67;100170.88;5074714;28;20048;-48
2023/05/17 01:03:29;;;;;;;1.02;0.50;;;;;;;21.27;57.84;100173.56;5074246;28;20067;-49
2023/05/17 01:05:57;;;;;;;1.33;0.60;;;;;;;21.26;57.89;100172.72;5073028;28;20059;-48
2023/05/17 01:08:25;;;;;;;1.05;0.60;;;;;;;21.26;57.85;100170.03;5073986;28;20044;-49
2023/05/17 01:11:17;;;;;;;1.27;0.55;;;;;;;21.26;57.86;100175.44;5073399;28;20040;-57
2023/05/17 01:13:48;;;;;;;1.45;0.47;;;;;;;21.26;57.73;100175.44;5074016;28;20052;-57
2023/05/17 01:16:32;;;;;;;2.58;0.60;;;;;;;21.26;57.86;100177.28;5074376;28;20357;-57
2023/05/17 01:19:14;;;;;;;1.55;0.50;;;;;;;21.25;57.62;100181.81;5074250;28;20048;-57
2023/05/17 01:22:00;;;;;;;1.48;0.63;;;;;;;21.26;58.02;100174.59;5074078;28;20051;-49
2023/05/17 01:25:06;;;;;;;1.00;0.40;;;;;;;21.26;57.97;100182.66;5072663;28;20052;-48
2023/05/17 01:27:38;;;;;;;1.70;0.60;;;;;;;21.25;57.94;100187.19;5071754;28;20420;-50
2023/05/17 01:30:08;;;;;;;1.15;0.50;;;;;;;21.26;58.02;100188.03;5072678;28;20056;-57
2023/05/17 01:32:38;;;;;;;1.67;0.60;;;;;;;21.25;57.93;100187.19;5073544;28;20059;-57
2023/05/17 01:35:07;;;;;;;0.98;0.50;;;;;;;21.24;58.13;100180.13;5073390;28;20059;-57
2023/05/17 01:37:35;;;;;;;1.45;0.68;;;;;;;21.24;57.95;100180.97;5073577;28;20051;-57
2023/05/17 01:40:03;;;;;;;1.35;0.50;;;;;;;21.25;57.90;100187.19;5073174;28;20048;-49
2023/05/17 01:42:32;;;;;;;1.25;0.40;;;;;;;21.23;58.04;100184.69;5073704;28;20374;-49
2023/05/17 01:45:05;;;;;;;1.42;0.68;;;;;;;21.24;57.92;100193.59;5073569;28;20519;-48
2023/05/17 01:48:14;;;;;;;1.90;0.60;;;;;;;21.23;58.04;100179.28;5073582;28;20048;-48
2023/05/17 01:50:44;;;;;;;1.27;0.50;;;;;;;21.24;57.89;100185.53;5073544;28;20040;-49
2023/05/17 01:53:54;;;;;;;1.88;0.60;;;;;;;21.22;57.94;100182.97;5072426;28;20508;-48
2023/05/17 01:56:33;;;;;;;1.45;0.60;;;;;;;21.23;58.00;100184.69;5051114;28;20052;-48
2023/05/17 01:59:05;;;;;;;2.65;0.75;;;;;;;21.22;57.94;100185.66;5034309;28;20049;-57
2023/05/17 02:01:34;;;;;;;1.23;0.60;;;;;;;21.23;57.96;100189.22;5051197;28;20382;-49
2023/05/17 02:04:02;;;;;;;1.75;0.60;;;;;;;21.22;57.90;100188.34;5034038;28;20053;-48
2023/05/17 02:06:31;;;;;;;0.98;0.40;;;;;;;21.22;58.02;100185.66;5050261;28;20087;-49
2023/05/17 02:09:01;;;;;;;1.00;0.47;;;;;;;21.22;57.96;100193.75;5050868;28;20052;-48
2023/05/17 02:11:28;;;;;;;2.38;0.57;;;;;;;21.22;57.94;100199.13;5051125;28;20049;-50
2023/05/17 02:13:57;;;;;;;1.45;0.60;;;;;;;21.22;57.99;100201.81;5051018;28;20060;-47
2023/05/17 02:16:25;;;;;;;1.50;0.47;;;;;;;21.23;57.99;100206.22;5033829;28;20049;-48
2023/05/17 02:18:52;;;;;;;2.03;0.60;;;;;;;21.22;58.04;100217.97;5034086;28;20053;-48
2023/05/17 02:21:19;;;;;;;1.33;0.47;;;;;;;21.22;57.87;100215.28;5052147;28;20408;-57
2023/05/17 02:23:47;;;;;;;1.05;0.52;;;;;;;21.22;57.84;100219.81;5055042;28;20049;-57
2023/05/17 02:26:14;;;;;;;1.20;0.45;;;;;;;21.22;57.86;100212.59;5040308;28;20064;-57
2023/05/17 02:28:41;;;;;;;2.30;0.47;;;;;;;21.21;57.92;100216.28;5077275;28;20049;-57
2023/05/17 02:31:09;;;;;;;1.13;0.40;;;;;;;21.20;57.93;100217.28;5077090;28;20048;-49
2023/05/17 02:33:36;;;;;;;1.00;0.40;;;;;;;21.22;57.90;100222.50;5076055;28;20064;-49
2023/05/17 02:36:04;;;;;;;0.98;0.40;;;;;;;21.22;57.90;100219.81;5077235;28;20045;-48
2023/05/17 02:38:31;;;;;;;0.90;0.40;;;;;;;21.22;57.92;100222.50;5076884;28;20408;-48
2023/05/17 02:40:58;;;;;;;1.75;0.50;;;;;;;21.21;57.96;100218.97;5077201;28;20055;-49
2023/05/17 02:43:26;;;;;;;2.63;0.68;;;;;;;21.21;57.96;100218.97;5075892;28;20060;-49
2023/05/17 02:45:53;;;;;;;1.40;0.60;;;;;;;21.20;57.99;100220.00;5077123;28;20051;-48
2023/05/17 02:48:20;;;;;;;0.80;0.35;;;;;;;21.20;58.01;100230.75;5075796;28;20072;-48
2023/05/17 02:50:48;;;;;;;1.48;0.60;;;;;;;21.22;57.96;100233.28;5076724;28;20049;-48
2023/05/17 02:53:15;;;;;;;1.33;0.50;;;;;;;21.20;57.86;100230.75;5075668;28;20045;-49
2023/05/17 02:55:43;;;;;;;0.80;0.40;;;;;;;21.21;57.96;100232.44;5076731;28;20048;-48
2023/05/17 02:58:11;;;;;;;1.63;0.50;;;;;;;21.21;57.99;100234.28;5075497;28;20518;-48
2023/05/17 03:00:43;;;;;;;1.02;0.40;;;;;;;21.20;57.81;100238.84;5075527;28;20392;-57
2023/05/17 03:03:10;;;;;;;2.78;0.50;;;;;;;21.20;57.81;100236.13;5075541;28;20048;-57
2023/05/17 03:05:38;;;;;;;0.85;0.40;;;;;;;21.20;57.90;100236.13;5076326;28;20384;-57
2023/05/17 03:08:05;;;;;;;1.23;0.52;;;;;;;21.20;57.83;100238.00;5075223;28;20048;-48
2023/05/17 03:10:33;;;;;;;1.17;0.40;;;;;;;21.20;57.82;100238.84;5075569;28;20052;-50
2023/05/17 03:13:00;;;;;;;0.68;0.38;;;;;;;21.19;57.84;100241.69;5075442;28;20044;-48
2023/05/17 03:15:33;;;;;;;1.33;0.63;;;;;;;21.19;57.95;100247.09;5075268;28;20056;-49
2023/05/17 03:18:02;;;;;;;1.10;0.47;;;;;;;21.20;57.90;100248.75;5075322;28;20048;-49
2023/05/17 03:20:30;;;;;;;1.10;0.50;;;;;;;21.20;57.98;100249.59;5075371;28;20056;-57
2023/05/17 03:22:57;;;;;;;1.67;0.80;;;;;;;21.18;57.92;100256.97;5076511;28;20085;-57
2023/05/17 03:25:24;;;;;;;1.20;0.47;;;;;;;21.19;57.89;100257.84;5075108;28;20052;-57
2023/05/17 03:27:52;;;;;;;1.40;0.30;;;;;;;21.20;57.82;100264.91;5076055;28;20067;-57
2023/05/17 03:30:20;;;;;;;1.25;0.40;;;;;;;21.18;57.85;100262.34;5074756;28;20045;-57
2023/05/17 03:32:47;;;;;;;1.58;0.32;;;;;;;21.20;58.00;100256.84;5075600;28;20052;-57
2023/05/17 03:35:15;;;;;;;0.70;0.30;;;;;;;21.20;57.93;100270.28;5075861;28;20059;-57
2023/05/17 03:37:46;;;;;;;1.25;0.60;;;;;;;21.20;58.05;100270.28;5074950;28;20044;-57
2023/05/17 03:40:14;;;;;;;0.57;0.28;;;;;;;21.20;58.10;100281.06;5074942;28;20056;-57
2023/05/17 03:42:42;;;;;;;0.52;0.22;;;;;;;21.21;58.18;100286.28;5074716;28;20052;-57
2023/05/17 03:45:10;;;;;;;1.60;0.40;;;;;;;21.20;58.34;100289.13;5074680;28;20053;-57
2023/05/17 03:47:37;;;;;;;1.23;0.50;;;;;;;21.21;58.21;100293.50;5075844;28;20068;-57
2023/05/17 03:50:05;;;;;;;2.25;0.82;;;;;;;21.21;58.17;100296.22;5075226;28;20076;-57
2023/05/17 03:52:32;;;;;;;1.45;0.40;;;;;;;21.21;58.06;100304.28;5074519;28;20040;-57
2023/05/17 03:55:00;;;;;;;1.55;0.40;;;;;;;21.19;58.22;100301.75;5075581;28;20045;-57
2023/05/17 03:57:28;;;;;;;2.03;0.50;;;;;;;21.20;58.11;100303.44;5075646;28;20457;-57
2023/05/17 03:59:55;;;;;;;0.80;0.35;;;;;;;21.20;58.19;100302.59;5075544;28;20507;-49
2023/05/17 04:02:22;;;;;;;0.98;0.47;;;;;;;21.19;58.10;100301.75;5074536;28;20045;-57
2023/05/17 04:04:51;;;;;;;2.58;0.38;;;;;;;21.18;58.03;100305.44;5075339;28;20048;-57
2023/05/17 04:07:20;;;;;;;1.30;0.50;;;;;;;21.18;58.05;100316.19;5074555;28;20673;-57
2023/05/17 04:09:47;;;;;;;1.45;0.50;;;;;;;21.19;58.12;100314.38;5075482;28;20472;-48
2023/05/17 04:12:15;;;;;;;1.65;0.50;;;;;;;21.19;58.01;100320.59;5074268;28;20048;-48
2023/05/17 04:14:43;;;;;;;0.70;0.30;;;;;;;21.17;58.12;100319.91;5074141;28;20055;-48
2023/05/17 04:17:10;;;;;;;1.95;0.40;;;;;;;21.18;58.06;100320.75;5074480;28;20420;-48
2023/05/17 04:19:38;;;;;;;2.70;0.65;;;;;;;21.18;58.04;100326.13;5075016;28;20482;-52
2023/05/17 04:22:06;;;;;;;2.20;0.50;;;;;;;21.18;58.15;100324.28;5075047;28;20048;-57
2023/05/17 04:24:34;;;;;;;0.82;0.43;;;;;;;21.18;58.03;100336.88;5073974;28;20496;-57
2023/05/17 04:27:03;;;;;;;0.95;0.38;;;;;;;21.17;58.06;100329.81;5073657;28;20049;-57
2023/05/17 04:29:30;;;;;;;2.20;0.40;;;;;;;21.17;58.17;100341.44;5074116;28;20500;-57
2023/05/17 04:31:58;;;;;;;2.85;0.60;;;;;;;21.17;58.18;100356.75;5074754;28;20052;-48
2023/05/17 04:34:26;;;;;;;1.10;0.40;;;;;;;21.17;58.06;100354.88;5073792;28;20056;-48
2023/05/17 04:36:56;;;;;;;1.35;0.55;;;;;;;21.16;58.07;100350.50;5073624;28;20060;-49
2023/05/17 04:39:25;;;;;;;1.30;0.30;;;;;;;21.16;58.04;100352.38;5073409;28;20142;-49
2023/05/17 04:41:53;;;;;;;0.98;0.40;;;;;;;21.16;58.09;100355.06;5073345;28;20051;-49
2023/05/17 04:44:21;;;;;;;1.75;0.70;;;;;;;21.17;58.18;100359.44;5073832;28;20056;-49
2023/05/17 04:46:49;;;;;;;1.80;0.63;;;;;;;21.16;58.14;100358.59;5073571;28;20044;-48
2023/05/17 04:49:17;;;;;;;1.00;0.40;;;;;;;21.15;58.02;100364.13;5073076;28;20518;-48
2023/05/17 04:51:45;;;;;;;2.28;0.60;;;;;;;21.15;58.15;100366.84;5073297;28;20056;-57
2023/05/17 04:54:12;;;;;;;1.25;0.32;;;;;;;21.16;58.05;100368.50;5073573;28;20053;-57
2023/05/17 04:56:40;;;;;;;1.83;0.57;;;;;;;21.14;58.01;100379.41;5073309;28;20053;-57
2023/05/17 04:59:13;;;;;;;1.02;0.45;;;;;;;21.14;58.10;100379.41;5073288;28;20067;-57
2023/05/17 05:01:41;;;;;;;1.98;0.63;;;;;;;21.15;57.86;100385.69;5074140;28;20503;-57
2023/05/17 05:04:09;;;;;;;0.77;0.40;;;;;;;21.15;57.83;100386.50;5072987;28;20419;-57
2023/05/17 05:06:41;;;;;;;1.60;0.40;;;;;;;21.14;57.99;100400.94;5073540;28;20063;-57
2023/05/17 05:09:09;;;;;;;1.58;0.73;;;;;;;21.15;57.79;100396.44;5073112;28;20060;-57
2023/05/17 05:11:38;;;;;;;0.95;0.52;;;;;;;21.14;57.99;100394.72;5073375;28;20051;-49
2023/05/17 05:14:06;;;;;;;0.90;0.40;;;;;;;21.13;57.99;100399.28;5073050;28;20512;-48
2023/05/17 05:16:33;;;;;;;1.13;0.50;;;;;;;21.14;57.98;100394.72;5072811;28;20053;-48
2023/05/17 05:19:01;;;;;;;2.00;1.35;;;;;;;21.13;58.04;100387.66;5072835;28;20056;-49
2023/05/17 05:21:29;;;;;;;1.08;0.38;;;;;;;21.13;58.01;100391.19;5072881;28;20064;-57
2023/05/17 05:23:57;;;;;;;1.35;0.60;;;;;;;21.12;58.02;100402.97;5072965;28;20496;-57
2023/05/17 05:26:25;;;;;;;1.15;0.40;;;;;;;21.12;57.93;100405.66;5072772;28;20059;-57
2023/05/17 05:28:56;;;;;;;1.02;0.50;;;;;;;21.13;57.95;100409.19;5072825;28;20052;-57
2023/05/17 05:31:24;;;;;;;1.80;0.70;;;;;;;21.12;57.88;100413.72;5072398;28;20067;-57
2023/05/17 05:33:55;;;;;;;1.10;0.50;;;;;;;21.11;57.90;100412.06;5072195;28;20059;-57
2023/05/17 05:36:23;;;;;;;1.88;0.43;;;;;;;21.12;57.91;100415.59;5072322;28;20045;-57
2023/05/17 05:38:53;;;;;;;2.20;0.55;;;;;;;21.12;57.86;100419.13;5072421;28;20044;-57
2023/05/17 05:41:21;;;;;;;1.42;0.50;;;;;;;21.12;58.01;100431.72;5073053;28;20055;-57
2023/05/17 05:43:49;;;;;;;0.88;0.43;;;;;;;21.12;57.96;100431.72;5072638;28;20060;-57
2023/05/17 05:46:18;;;;;;;1.30;0.52;;;;;;;21.11;58.00;100436.28;5072366;28;20052;-57
2023/05/17 05:48:45;;;;;;;1.58;0.60;;;;;;;21.10;58.02;100422.94;5072427;28;20052;-57
2023/05/17 05:51:13;;;;;;;2.53;0.80;;;;;;;21.12;58.08;100437.97;5072108;28;20059;-57
2023/05/17 05:53:42;;;;;;;3.55;0.65;;;;;;;21.12;58.05;100434.44;5072201;28;20044;-57
2023/05/17 05:56:09;;;;;;;2.20;0.50;;;;;;;21.11;57.99;100430.88;5071550;28;20048;-57
2023/05/17 05:58:37;;;;;;;1.30;0.70;;;;;;;21.11;57.98;100432.75;5073185;28;20381;-57
2023/05/17 06:01:05;;;;;;;1.45;0.45;;;;;;;21.11;57.94;100436.28;5072358;28;20048;-57
2023/05/17 06:03:33;;;;;;;1.60;0.50;;;;;;;21.11;58.03;100435.44;5073420;28;20040;-57
2023/05/17 06:06:00;;;;;;;1.48;0.52;;;;;;;21.10;58.03;100442.63;5073397;28;20366;-57
2023/05/17 06:08:28;;;;;;;1.52;0.52;;;;;;;21.11;58.02;100443.50;5073526;28;20052;-57
2023/05/17 06:10:55;;;;;;;2.03;0.52;;;;;;;21.11;58.10;100452.44;5073438;28;20063;-57
2023/05/17 06:13:22;;;;;;;3.17;0.55;;;;;;;21.12;58.08;100456.81;5073159;28;20465;-57
2023/05/17 06:15:50;;;;;;;1.63;0.57;;;;;;;21.12;58.17;100459.50;5073072;28;20052;-57
2023/05/17 06:18:17;;;;;;;1.48;0.57;;;;;;;21.11;58.19;100457.81;5072068;28;20055;-57
2023/05/17 06:20:45;;;;;;;1.25;0.63;;;;;;;21.10;58.19;100453.41;5073245;28;20055;-48
2023/05/17 06:23:13;;;;;;;1.23;0.55;;;;;;;21.11;58.21;100465.88;5073461;28;20511;-47
2023/05/17 06:25:41;;;;;;;1.48;0.60;;;;;;;21.09;58.18;100457.09;5073339;28;20055;-48
2023/05/17 06:28:08;;;;;;;2.53;0.93;;;;;;;21.10;58.16;100464.16;5073617;28;20060;-49
2023/05/17 06:30:36;;;;;;;2.65;0.60;;;;;;;21.11;58.32;100465.88;5073262;28;20048;-48
2023/05/17 06:33:03;;;;;;;2.45;0.60;;;;;;;21.11;58.23;100473.97;5072811;28;20055;-49
2023/05/17 06:35:31;;;;;;;1.92;0.82;;;;;;;21.12;58.17;100480.19;5073279;28;20063;-48
2023/05/17 06:38:14;;;;;;;;;;;;;;;21.10;58.46;100485.69;5073553;28;20053;-48
2023/05/17 06:40:41;;;;;;;1.33;0.45;;;;;;;21.12;58.37;100483.72;5073164;28;20367;-49
2023/05/17 06:43:08;;;;;;;2.33;0.70;;;;;;;21.13;58.26;100498.03;5072967;28;20055;-51
2023/05/17 06:45:36;;;;;;;1.38;0.45;;;;;;;21.11;58.48;100487.41;5072827;28;20060;-48
2023/05/17 06:48:03;;;;;;;1.23;0.45;;;;;;;21.13;58.50;100484.56;5073010;28;20052;-48
2023/05/17 06:50:31;;;;;;;4.82;0.75;;;;;;;21.13;58.57;100484.56;5074415;28;20037;-48
2023/05/17 06:52:58;;;;;;;1.95;0.80;;;;;;;21.13;58.49;100495.31;5088172;28;20044;-49
2023/05/17 06:55:26;;;;;;;1.80;0.60;;;;;;;21.13;58.41;100496.16;5077517;28;20044;-48
2023/05/17 06:57:55;;;;;;;1.77;0.65;;;;;;;21.11;57.92;100498.19;5072300;28;20041;-49
2023/05/17 07:00:23;;;;;;;4.90;0.90;;;;;;;21.09;57.68;100508.25;5072007;28;20048;-47
2023/05/17 07:02:51;;;;;;;1.42;0.68;;;;;;;21.09;57.72;100500.16;5070848;28;20040;-50
2023/05/17 07:05:18;;;;;;;2.75;1.15;;;;;;;21.08;57.65;100516.47;5072618;28;20503;-49
2023/05/17 07:07:46;;;;;;;3.13;0.77;;;;;;;21.06;57.48;100513.06;5073834;28;20041;-51
2023/05/17 07:10:13;;;;;;;2.15;0.88;;;;;;;21.04;57.42;100518.63;5075657;28;20473;-56
2023/05/17 07:12:40;;;;;;;2.60;0.70;;;;;;;21.03;57.29;100521.47;5075903;28;20056;-56
2023/05/17 07:15:08;;;;;;;1.95;0.80;;;;;;;21.01;57.29;100524.28;5075630;28;20075;-56
2023/05/17 07:17:36;;;;;;;1.70;0.70;;;;;;;21.00;57.29;100528.00;5074997;28;20063;-57
2023/05/17 07:20:04;;;;;;;2.85;0.73;;;;;;;20.99;57.13;100534.38;5075870;28;20056;-50
2023/05/17 07:22:32;;;;;;;1.20;0.50;;;;;;;20.98;56.84;100533.53;5076104;28;20041;-50
2023/05/17 07:25:00;;;;;;;1.60;0.75;;;;;;;20.98;57.04;100538.03;5075981;28;20052;-50
2023/05/17 07:27:27;;;;;;;2.63;0.60;;;;;;;20.97;57.06;100525.59;5075580;28;20056;-48
2023/05/17 07:29:54;;;;;;;2.13;0.98;;;;;;;20.96;57.23;100542.75;5075940;28;20044;-55
2023/05/17 07:32:21;;;;;;;2.30;0.85;;;;;;;20.95;57.07;100543.75;5075507;28;20508;-57
2023/05/17 07:34:49;;;;;;;1.45;0.50;;;;;;;20.94;57.25;100545.59;5075385;28;20052;-57
2023/05/17 07:37:16;;;;;;;2.63;0.70;;;;;;;20.95;57.46;100547.28;5075612;28;20048;-57
2023/05/17 07:39:44;;;;;;;1.95;0.88;;;;;;;20.95;57.47;100539.22;5075297;28;20400;-48
2023/05/17 07:42:11;;;;;;;4.05;1.08;;;;;;;20.96;57.43;100532.81;5089153;28;20051;-48
2023/05/17 07:44:38;;;;;;;1.42;0.70;;;;;;;20.96;57.38;100537.34;5096208;28;20059;-48
2023/05/17 07:47:05;;;;;;;2.25;0.70;;;;;;;20.96;57.40;100540.06;5077105;28;20071;-48
2023/05/17 07:49:33;;;;;;;1.60;0.52;;;;;;;20.96;57.22;100546.28;5075227;28;20401;-49
2023/05/17 07:52:01;;;;;;;1.70;0.65;;;;;;;20.97;57.34;100545.28;5075132;28;20059;-57
2023/05/17 07:54:31;;;;;;;1.48;0.70;;;;;;;20.98;57.29;100538.91;5075594;28;20052;-58
2023/05/17 07:56:59;;;;;;;1.30;0.60;;;;;;;20.98;57.39;100541.59;5075095;28;20389;-57
2023/05/17 07:59:26;;;;;;;2.55;0.43;;;;;;;20.98;57.45;100548.81;5074849;28;20049;-57
2023/05/17 08:01:53;;;;;;;1.63;0.45;;;;;;;20.97;57.48;100545.28;5073410;28;20373;-57
2023/05/17 08:04:22;;;;;;;0.98;0.50;;;;;;;20.97;57.43;100539.03;5073746;28;20044;-57
2023/05/17 08:06:50;;;;;;;2.45;1.00;;;;;;;20.95;57.38;100549.97;5074365;28;20067;-57
2023/05/17 08:09:18;;;;;;;1.67;0.60;;;;;;;20.94;57.33;100550.97;5074749;28;20049;-57
2023/05/17 08:11:46;;;;;;;1.25;0.55;;;;;;;20.94;57.38;100556.34;5074810;28;20041;-57
2023/05/17 08:14:15;;;;;;;1.75;0.75;;;;;;;20.93;57.40;100557.34;5074715;28;20473;-57
2023/05/17 08:16:45;;;;;;;2.20;0.73;;;;;;;20.93;57.33;100564.56;5074721;28;20358;-57
2023/05/17 08:19:14;;;;;;;1.92;0.82;;;;;;;20.92;57.49;100573.63;5074048;28;20052;-57
2023/05/17 08:21:42;;;;;;;1.70;0.73;;;;;;;20.89;57.30;100577.47;5074829;28;20045;-57
2023/05/17 08:24:10;;;;;;;4.07;1.10;;;;;;;20.87;57.56;100578.63;5074575;28;20056;-57
2023/05/17 08:26:38;;;;;;;1.90;0.80;;;;;;;20.89;57.41;100585.53;5074766;28;20506;-49
2023/05/17 08:29:05;;;;;;;4.40;0.73;;;;;;;20.91;57.58;100588.94;5079799;28;20039;-48
2023/05/17 08:31:33;;;;;;;1.40;0.70;;;;;;;20.92;57.57;100592.47;5094860;28;20051;-47
2023/05/17 08:34:00;;;;;;;1.23;0.40;;;;;;;20.94;57.77;100595.84;5094894;28;20431;-49
2023/05/17 08:36:28;;;;;;;2.08;0.63;;;;;;;20.95;57.75;100602.94;5094718;28;20044;-48
2023/05/17 08:38:55;;;;;;;1.40;0.52;;;;;;;20.94;57.81;100604.81;5094416;28;20044;-49
2023/05/17 08:41:22;;;;;;;1.73;0.47;;;;;;;20.95;57.67;100605.63;5094893;28;20052;-57
2023/05/17 08:43:50;;;;;;;2.75;0.68;;;;;;;20.96;57.77;100613.56;5093006;28;20059;-57
2023/05/17 08:46:22;;;;;;;2.25;0.68;;;;;;;20.97;57.74;100623.31;5083728;28;20041;-50
2023/05/17 08:48:52;;;;;;;2.42;0.70;;;;;;;20.98;57.76;100610.72;5074157;28;20404;-51
2023/05/17 08:51:20;;;;;;;1.00;0.40;;;;;;;20.98;57.74;100605.31;5074100;28;20049;-57
2023/05/17 08:53:49;;;;;;;3.17;0.70;;;;;;;20.98;57.80;100613.41;5073735;28;20047;-58
2023/05/17 08:56:19;;;;;;;1.92;0.47;;;;;;;21.00;57.81;100614.13;5074126;28;20045;-57
2023/05/17 08:58:50;;;;;;;2.00;0.60;;;;;;;21.01;57.69;100617.66;5074108;28;20044;-57
2023/05/17 09:01:24;;;;;;;1.70;0.60;;;;;;;21.01;57.78;100620.34;5073975;28;20400;-50
2023/05/17 09:03:54;;;;;;;1.38;0.57;;;;;;;21.01;57.76;100633.78;5072399;28;20358;-50
2023/05/17 09:06:22;;;;;;;1.23;0.47;;;;;;;21.02;57.68;100632.78;5091239;28;20514;-48
2023/05/17 09:08:53;;;;;;;1.60;0.63;;;;;;;21.01;57.73;100631.94;5094081;28;20044;-49
2023/05/17 09:11:32;;;;;;;2.90;0.68;;;;;;;21.01;57.84;100628.41;5093943;28;20396;-49
2023/05/17 09:14:00;;;;;;;1.42;0.50;;;;;;;21.02;57.70;100635.47;5093859;28;20044;-49
2023/05/17 09:16:33;;;;;;;1.05;0.43;;;;;;;21.01;57.79;100629.25;5093927;28;20054;-50
2023/05/17 09:19:02;;;;;;;;;;;;;;;21.00;57.71;100632.94;5094536;28;20040;-49
2023/05/17 09:21:31;;;;;;;3.13;0.88;;;;;;;21.01;57.74;100631.09;5093932;28;19924;-49
2023/05/17 09:24:02;;;;;;;1.70;0.63;;;;;;;21.01;57.79;100625.72;5093477;28;20036;-49
2023/05/17 09:26:40;;;;;;;1.75;0.50;;;;;;;21.00;57.79;100641.03;5093533;28;20044;-52
2023/05/17 09:29:09;;;;;;;2.38;0.80;;;;;;;20.98;57.94;100640.31;5091614;28;20044;-49
2023/05/17 09:31:38;;;;;;;3.42;1.05;;;;;;;20.95;58.03;100643.31;5093051;28;20044;-59
2023/05/17 09:34:06;;;;;;;2.72;0.90;;;;;;;20.88;58.22;100639.50;5093469;28;20056;-59
2023/05/17 09:36:36;;;;;;;1.70;0.60;;;;;;;20.84;58.39;100638.09;5091953;28;20504;-59
2023/05/17 09:39:09;;;;;;;2.10;0.93;;;;;;;20.81;58.64;100643.78;5093072;28;20048;-59
2023/05/17 09:41:45;;;;;;;2.92;1.20;;;;;;;20.76;58.74;100654.13;5093511;28;20058;-59
2023/05/17 09:44:15;;;;;;;3.25;1.02;;;;;;;20.72;58.79;100650.88;5093123;28;20044;-59
2023/05/17 09:46:47;;;;;;;2.13;1.13;;;;;;;20.66;59.04;100663.06;5090393;28;20055;-59
2023/05/17 09:49:16;;;;;;;2.58;1.15;;;;;;;20.62;59.33;100661.66;5093706;28;20043;-58
2023/05/17 09:51:46;;;;;;;2.58;1.40;;;;;;;20.57;59.58;100672.00;5093130;28;20040;-51
2023/05/17 09:54:13;;;;;;;2.45;1.15;;;;;;;20.53;59.70;100670.56;5092793;28;20507;-49
2023/05/17 09:56:41;;;;;;;2.83;1.25;;;;;;;20.50;59.66;100681.66;5092707;28;20055;-58
2023/05/17 09:59:13;;;;;;;2.65;1.25;;;;;;;20.48;59.81;100686.28;5093242;28;20051;-58
2023/05/17 10:01:43;;;;;;;2.72;1.30;;;;;;;20.47;59.78;100681.91;5092918;28;20051;-58
2023/05/17 10:04:12;;;;;;;2.17;1.20;;;;;;;20.44;60.01;100690.22;5084273;28;20045;-59
2023/05/17 10:06:41;;;;;;;3.80;1.30;;;;;;;20.41;60.26;100693.19;5089652;28;20075;-59
2023/05/17 10:09:12;;;;;;;3.25;1.33;;;;;;;20.39;60.34;100695.19;5093093;28;20395;-59
2023/05/17 10:11:44;;;;;;;4.15;1.23;;;;;;;20.38;60.28;100704.25;5092129;28;20056;-49
2023/05/17 10:14:17;;;;;;;2.42;1.17;;;;;;;20.40;60.07;100696.88;5092920;28;20044;-51
2023/05/17 10:16:45;;;;;;;2.88;1.10;;;;;;;20.44;59.95;100715.28;5093287;28;20058;-49
2023/05/17 10:19:13;;;;;;;1.40;0.70;;;;;;;20.48;59.88;100713.16;5092027;28;20502;-50
2023/05/17 10:21:42;;;;;;;3.15;1.02;;;;;;;20.53;59.64;100726.22;5092256;28;20044;-51
2023/05/17 10:24:11;;;;;;;2.03;0.90;;;;;;;20.56;59.49;100724.09;5092858;28;20047;-48
2023/05/17 10:26:39;;;;;;;1.35;0.50;;;;;;;20.60;59.40;100727.34;5092538;28;20502;-48
2023/05/17 10:29:06;;;;;;;1.90;0.60;;;;;;;20.62;59.46;100726.22;5092731;28;20070;-49
2023/05/17 10:31:35;;;;;;;2.83;1.10;;;;;;;20.64;59.31;100729.59;5093210;28;20384;-49
2023/05/17 10:34:05;;;;;;;2.20;1.02;;;;;;;20.67;59.40;100731.16;5092681;28;20059;-47
2023/05/17 10:36:32;;;;;;;2.53;1.20;;;;;;;20.68;59.40;100725.63;5092584;28;20051;-51
2023/05/17 10:39:01;;;;;;;2.70;1.27;;;;;;;20.70;59.44;100731.75;5093080;28;20056;-49
2023/05/17 10:41:33;;;;;;;3.45;1.60;;;;;;;20.71;59.24;100733.44;5092628;28;20052;-57
2023/05/17 10:44:02;;;;;;;2.60;1.25;;;;;;;20.74;59.21;100726.88;5096219;28;20047;-57
2023/05/17 10:46:30;;;;;;;2.33;1.30;;;;;;;20.74;59.25;100738.53;5096784;28;20040;-57
2023/05/17 10:48:59;;;;;;;2.70;1.33;;;;;;;20.76;59.29;100737.53;5096723;28;20040;-57
2023/05/17 10:51:32;;;;;;;2.60;1.35;;;;;;;20.77;59.20;100748.13;5096767;28;20043;-57
2023/05/17 10:54:12;;;;;;;2.33;1.35;;;;;;;20.77;59.28;100750.81;5097097;28;20051;-56
2023/05/17 10:56:47;;;;;;;2.17;0.85;;;;;;;20.79;59.21;100751.53;5096600;28;20085;-57
2023/05/17 10:59:16;;;;;;;2.28;1.20;;;;;;;20.80;59.22;100760.47;5096591;28;20040;-57
2023/05/17 11:01:51;;;;;;;2.10;1.20;;;;;;;20.81;59.42;100767.53;5096798;28;20044;-58
2023/05/17 11:04:24;;;;;;;2.85;1.17;;;;;;;20.80;59.33;100769.38;5095694;28;20114;-57
2023/05/17 11:06:54;;;;;;;4.13;1.92;;;;;;;20.81;59.26;100762.16;5074677;28;20071;-57
2023/05/17 11:09:24;;;;;;;2.65;1.10;;;;;;;20.82;59.29;100753.09;5074770;28;20051;-57
2023/05/17 11:12:09;;;;;;;2.13;0.88;;;;;;;20.82;59.11;100762.00;5076446;28;20040;-57
2023/05/17 11:14:57;;;;;;;2.58;1.60;;;;;;;20.82;59.37;100761.16;5076445;28;20385;-57
2023/05/17 11:17:27;;;;;;;2.42;0.93;;;;;;;20.84;59.22;100761.88;5075963;28;20051;-58
2023/05/17 11:20:08;;;;;;;2.97;1.30;;;;;;;20.83;59.35;100771.78;5076361;28;20048;-57
2023/05/17 11:23:04;;;;;;;4.40;1.30;;;;;;;20.83;59.28;100763.72;5076399;28;20052;-57
2023/05/17 11:25:34;;;;;;;3.00;1.58;;;;;;;20.85;59.38;100766.25;5074342;28;20057;-57
2023/05/17 11:28:08;;;;;;;2.83;1.60;;;;;;;20.85;59.29;100768.94;5074844;28;20483;-57
2023/05/17 11:30:41;;;;;;;3.08;1.65;;;;;;;20.86;59.38;100765.25;5076000;28;20041;-57
2023/05/17 11:33:08;;;;;;;;;;;;;;;20.85;59.40;100764.41;5075910;28;20063;-57
2023/05/17 11:35:53;;;;;;;2.85;1.08;;;;;;;20.86;59.39;100765.25;5082930;28;19924;-57
2023/05/17 11:38:23;;;;;;;3.40;1.35;;;;;;;20.85;59.54;100764.41;5096169;28;20070;-57